Friday, October 19, 2018, 3:26 AM EDT
Back to Local

KMTN, Baltimore / Martin

Location: Middle River, MD, United States Lat: 39.333
Local Time: 3:26 AM EDT ( 7:26 GMT) Lon: -76.417
Time Zone: US/Eastern Elev: 22 ft

Show me the last for .
Show Decoded

2018-10-19 03:00 METAR KMTN 190700Z AUTO 00000KT 10SM CLR 05/04 A3039 RMK AO2 =
2018-10-19 02:42 METAR KMTN 190642Z AUTO 00000KT 10SM CLR 05/03 A3039 RMK AO2 =
2018-10-19 02:21 METAR KMTN 190621Z AUTO 00000KT 10SM CLR 05/04 A3039 RMK AO2 =
2018-10-19 02:00 METAR KMTN 190600Z AUTO 00000KT 10SM CLR 05/04 A3039 RMK AO2 =
2018-10-19 01:42 METAR KMTN 190542Z AUTO 00000KT 10SM CLR 06/04 A3039 RMK AO2 =
2018-10-19 01:21 METAR KMTN 190521Z AUTO 00000KT 10SM CLR 06/04 A3039 RMK AO2 =
2018-10-19 01:00 METAR KMTN 190500Z AUTO 00000KT 10SM CLR 06/04 A3039 RMK AO2 =
2018-10-19 00:42 METAR KMTN 190442Z AUTO 00000KT 10SM CLR 07/05 A3039 RMK AO2 =
2018-10-19 00:21 METAR KMTN 190421Z AUTO 00000KT 10SM CLR 06/05 A3040 RMK AO2 =
2018-10-19 00:00 METAR KMTN 190400Z AUTO 30003KT 10SM CLR 06/05 A3040 RMK AO2 =
2018-10-18 23:42 METAR KMTN 190342Z AUTO 00000KT 10SM CLR 06/05 A3040 RMK AO2 =
2018-10-18 23:21 METAR KMTN 190321Z AUTO 00000KT 10SM CLR 06/05 A3041 RMK AO2 =
2018-10-18 23:00 METAR KMTN 190300Z AUTO 00000KT 10SM CLR 06/05 A3041 RMK AO2 =
2018-10-18 22:21 METAR KMTN 190221Z AUTO 00000KT 10SM CLR 07/05 A3040 RMK AO2 =
2018-10-18 21:45 METAR KMTN 190145Z 00000KT 10SM SKC 07/06 A3040 =
2018-10-18 20:50 METAR KMTN 190050Z 00000KT 10SM SKC 08/04 A3040 =
2018-10-18 19:50 METAR KMTN 182350Z 00000KT 10SM SKC 09/03 A3041 =
2018-10-18 18:50 METAR KMTN 182250Z 27005KT 10SM SKC 12/01 A3040 =
2018-10-18 17:50 METAR KMTN 182150Z 29008KT 10SM SKC 13/01 A3039 =
2018-10-18 16:55 METAR KMTN 182055Z 29009KT 10SM SKC 14/00 A3038 =
2018-10-18 15:45 METAR KMTN 181945Z 28009KT 10SM SKC 17/M01 A3039 =
2018-10-18 14:45 METAR KMTN 181845Z 28008G14KT 10SM FEW070 14/01 A3039 =
2018-10-18 13:45 METAR KMTN 181745Z 29006KT 10SM SCT070 13/01 A3041 =
2018-10-18 12:45 METAR KMTN 181645Z 28011G14KT 10SM SCT055 13/01 A3042 =
2018-10-18 11:45 METAR KMTN 181545Z 29009KT 10SM BKN050 12/01 A3043 =
2018-10-18 10:45 METAR KMTN 181445Z 31007KT 10SM BKN050 11/01 A3044 =
2018-10-18 09:45 METAR KMTN 181345Z 28009KT 10SM SCT055 11/01 A3043 =
2018-10-18 08:45 METAR KMTN 181245Z 27007KT 10SM BKN065 09/00 A3042 =
2018-10-18 07:45 METAR KMTN 181145Z 26005KT 10SM BKN065 08/02 A3040 =
2018-10-18 06:45 METAR KMTN 181045Z 00000KT 10SM BKN065 07/01 A3038 =
2018-10-18 05:45 METAR KMTN 180945Z 32003KT 10SM SCT070 07/M01 A3036 =
2018-10-18 05:30 METAR KMTN 180930Z AUTO 30006KT 10SM CLR 08/M01 A3036 RMK AO2 =
2018-10-18 05:21 METAR KMTN 180921Z AUTO 29008KT 10SM CLR 08/M01 A3036 RMK AO2 =
2018-10-18 05:00 METAR KMTN 180900Z AUTO 29007KT 10SM CLR 08/M01 A3036 RMK AO2 =
2018-10-18 04:42 METAR KMTN 180842Z AUTO 31009KT 10SM SCT070 08/M01 A3034 RMK AO2 =
2018-10-18 04:21 METAR KMTN 180821Z AUTO 29012G15KT 10SM OVC070 09/00 A3033 RMK AO2 =
2018-10-18 04:00 METAR KMTN 180800Z AUTO 30007KT 10SM OVC070 10/00 A3033 RMK AO2 =
2018-10-18 03:42 METAR KMTN 180742Z AUTO 31007KT 279V339 10SM SCT060 OVC070 10/01 A3033 RMK AO2 =

Support USWX by starting your Amazon purchase here.